sensor_id;sensor_type;location;lat;lon;timestamp;P1;durP1;ratioP1;P2;durP2;ratioP2
39140;SDS011;24875;48.436;10.298;2024-01-30T00:00:35;13.70;;;7.17;;
39140;SDS011;24875;48.436;10.298;2024-01-30T00:03:03;11.73;;;7.00;;
39140;SDS011;24875;48.436;10.298;2024-01-30T00:05:30;14.27;;;6.83;;
39140;SDS011;24875;48.436;10.298;2024-01-30T00:07:56;16.00;;;6.93;;
39140;SDS011;24875;48.436;10.298;2024-01-30T00:10:23;16.37;;;7.93;;
39140;SDS011;24875;48.436;10.298;2024-01-30T00:12:49;15.77;;;7.57;;
39140;SDS011;24875;48.436;10.298;2024-01-30T00:15:16;21.83;;;9.20;;
39140;SDS011;24875;48.436;10.298;2024-01-30T00:17:43;14.53;;;7.27;;
39140;SDS011;24875;48.436;10.298;2024-01-30T00:20:11;16.17;;;7.50;;
39140;SDS011;24875;48.436;10.298;2024-01-30T00:22:37;15.07;;;7.23;;
39140;SDS011;24875;48.436;10.298;2024-01-30T00:25:04;18.23;;;8.47;;
39140;SDS011;24875;48.436;10.298;2024-01-30T00:27:31;19.27;;;7.87;;
39140;SDS011;24875;48.436;10.298;2024-01-30T00:29:57;15.00;;;7.67;;
39140;SDS011;24875;48.436;10.298;2024-01-30T00:32:24;14.13;;;6.27;;
39140;SDS011;24875;48.436;10.298;2024-01-30T00:34:50;21.03;;;8.83;;
39140;SDS011;24875;48.436;10.298;2024-01-30T00:37:18;15.57;;;7.53;;
39140;SDS011;24875;48.436;10.298;2024-01-30T00:39:45;15.57;;;8.23;;
39140;SDS011;24875;48.436;10.298;2024-01-30T00:42:11;16.83;;;6.73;;
39140;SDS011;24875;48.436;10.298;2024-01-30T00:44:38;19.43;;;8.13;;
39140;SDS011;24875;48.436;10.298;2024-01-30T00:47:04;15.53;;;7.03;;
39140;SDS011;24875;48.436;10.298;2024-01-30T00:49:31;16.80;;;7.73;;
39140;SDS011;24875;48.436;10.298;2024-01-30T00:51:58;19.53;;;8.63;;
39140;SDS011;24875;48.436;10.298;2024-01-30T00:54:25;13.43;;;6.20;;
39140;SDS011;24875;48.436;10.298;2024-01-30T00:56:52;19.77;;;7.67;;
39140;SDS011;24875;48.436;10.298;2024-01-30T00:59:18;18.80;;;7.90;;
39140;SDS011;24875;48.436;10.298;2024-01-30T01:01:45;16.93;;;7.33;;
39140;SDS011;24875;48.436;10.298;2024-01-30T01:04:11;19.10;;;7.13;;
39140;SDS011;24875;48.436;10.298;2024-01-30T01:06:38;19.87;;;7.87;;
39140;SDS011;24875;48.436;10.298;2024-01-30T01:09:07;20.70;;;7.63;;
39140;SDS011;24875;48.436;10.298;2024-01-30T01:11:35;16.53;;;7.33;;
39140;SDS011;24875;48.436;10.298;2024-01-30T01:14:03;11.27;;;6.33;;
39140;SDS011;24875;48.436;10.298;2024-01-30T01:16:29;13.57;;;6.17;;
39140;SDS011;24875;48.436;10.298;2024-01-30T01:18:56;22.37;;;6.60;;
39140;SDS011;24875;48.436;10.298;2024-01-30T01:21:22;15.67;;;6.00;;
39140;SDS011;24875;48.436;10.298;2024-01-30T01:23:49;13.57;;;6.33;;
39140;SDS011;24875;48.436;10.298;2024-01-30T01:26:15;15.07;;;6.87;;
39140;SDS011;24875;48.436;10.298;2024-01-30T01:28:43;14.37;;;6.17;;
39140;SDS011;24875;48.436;10.298;2024-01-30T01:31:10;18.73;;;6.77;;
39140;SDS011;24875;48.436;10.298;2024-01-30T01:33:36;15.13;;;6.13;;
39140;SDS011;24875;48.436;10.298;2024-01-30T01:36:03;17.93;;;6.97;;
39140;SDS011;24875;48.436;10.298;2024-01-30T01:38:31;13.90;;;6.80;;
39140;SDS011;24875;48.436;10.298;2024-01-30T01:40:58;14.83;;;6.67;;
39140;SDS011;24875;48.436;10.298;2024-01-30T01:43:24;14.07;;;6.60;;
39140;SDS011;24875;48.436;10.298;2024-01-30T01:45:52;11.43;;;5.57;;
39140;SDS011;24875;48.436;10.298;2024-01-30T01:48:19;12.60;;;6.03;;
39140;SDS011;24875;48.436;10.298;2024-01-30T01:50:45;13.13;;;6.70;;
39140;SDS011;24875;48.436;10.298;2024-01-30T01:53:12;15.53;;;7.87;;
39140;SDS011;24875;48.436;10.298;2024-01-30T01:55:39;10.10;;;5.60;;
39140;SDS011;24875;48.436;10.298;2024-01-30T01:58:06;14.67;;;6.47;;
39140;SDS011;24875;48.436;10.298;2024-01-30T02:00:34;12.47;;;5.23;;
39140;SDS011;24875;48.436;10.298;2024-01-30T02:03:05;16.33;;;6.33;;
39140;SDS011;24875;48.436;10.298;2024-01-30T02:05:34;11.10;;;5.07;;
39140;SDS011;24875;48.436;10.298;2024-01-30T02:08:01;15.40;;;6.37;;
39140;SDS011;24875;48.436;10.298;2024-01-30T02:10:27;13.70;;;6.43;;
39140;SDS011;24875;48.436;10.298;2024-01-30T02:12:54;12.53;;;5.90;;
39140;SDS011;24875;48.436;10.298;2024-01-30T02:15:20;14.30;;;7.20;;
39140;SDS011;24875;48.436;10.298;2024-01-30T02:17:47;9.77;;;4.57;;
39140;SDS011;24875;48.436;10.298;2024-01-30T02:20:15;13.03;;;6.03;;
39140;SDS011;24875;48.436;10.298;2024-01-30T02:22:43;8.90;;;5.13;;
39140;SDS011;24875;48.436;10.298;2024-01-30T02:25:09;10.27;;;5.93;;
39140;SDS011;24875;48.436;10.298;2024-01-30T02:27:36;11.33;;;4.90;;
39140;SDS011;24875;48.436;10.298;2024-01-30T02:30:03;11.77;;;5.93;;
39140;SDS011;24875;48.436;10.298;2024-01-30T02:32:30;13.03;;;5.67;;
39140;SDS011;24875;48.436;10.298;2024-01-30T02:34:57;12.80;;;6.03;;
39140;SDS011;24875;48.436;10.298;2024-01-30T02:37:23;14.23;;;6.33;;
39140;SDS011;24875;48.436;10.298;2024-01-30T02:39:51;12.37;;;6.23;;
39140;SDS011;24875;48.436;10.298;2024-01-30T02:42:18;12.77;;;5.40;;
39140;SDS011;24875;48.436;10.298;2024-01-30T02:44:44;12.47;;;5.93;;
39140;SDS011;24875;48.436;10.298;2024-01-30T02:47:11;8.90;;;4.87;;
39140;SDS011;24875;48.436;10.298;2024-01-30T02:49:37;15.53;;;5.53;;
39140;SDS011;24875;48.436;10.298;2024-01-30T02:52:04;10.07;;;5.43;;
39140;SDS011;24875;48.436;10.298;2024-01-30T02:54:31;9.90;;;5.67;;
39140;SDS011;24875;48.436;10.298;2024-01-30T02:56:59;11.73;;;5.43;;
39140;SDS011;24875;48.436;10.298;2024-01-30T02:59:25;9.03;;;5.20;;
39140;SDS011;24875;48.436;10.298;2024-01-30T03:01:52;14.53;;;5.83;;
39140;SDS011;24875;48.436;10.298;2024-01-30T03:04:18;9.60;;;5.27;;
39140;SDS011;24875;48.436;10.298;2024-01-30T03:06:45;12.80;;;6.23;;
39140;SDS011;24875;48.436;10.298;2024-01-30T03:09:12;13.83;;;6.07;;
39140;SDS011;24875;48.436;10.298;2024-01-30T03:11:39;12.67;;;5.40;;
39140;SDS011;24875;48.436;10.298;2024-01-30T03:14:07;13.23;;;5.37;;
39140;SDS011;24875;48.436;10.298;2024-01-30T03:16:36;15.07;;;6.23;;
39140;SDS011;24875;48.436;10.298;2024-01-30T03:19:02;8.57;;;4.57;;
39140;SDS011;24875;48.436;10.298;2024-01-30T03:21:29;12.87;;;5.60;;
39140;SDS011;24875;48.436;10.298;2024-01-30T03:23:55;10.47;;;4.13;;
39140;SDS011;24875;48.436;10.298;2024-01-30T03:26:22;15.27;;;5.93;;
39140;SDS011;24875;48.436;10.298;2024-01-30T03:28:48;10.43;;;4.60;;
39140;SDS011;24875;48.436;10.298;2024-01-30T03:31:16;11.07;;;4.80;;
39140;SDS011;24875;48.436;10.298;2024-01-30T03:33:43;11.87;;;4.33;;
39140;SDS011;24875;48.436;10.298;2024-01-30T03:36:09;13.33;;;5.47;;
39140;SDS011;24875;48.436;10.298;2024-01-30T03:38:37;10.93;;;5.03;;
39140;SDS011;24875;48.436;10.298;2024-01-30T03:41:07;10.27;;;4.77;;
39140;SDS011;24875;48.436;10.298;2024-01-30T03:43:33;11.47;;;5.03;;
39140;SDS011;24875;48.436;10.298;2024-01-30T03:46:00;10.90;;;4.77;;
39140;SDS011;24875;48.436;10.298;2024-01-30T03:48:28;9.40;;;5.23;;
39140;SDS011;24875;48.436;10.298;2024-01-30T03:50:55;9.57;;;5.30;;
39140;SDS011;24875;48.436;10.298;2024-01-30T03:53:22;10.40;;;4.87;;
39140;SDS011;24875;48.436;10.298;2024-01-30T03:55:48;8.43;;;4.60;;
39140;SDS011;24875;48.436;10.298;2024-01-30T03:58:15;9.23;;;4.20;;
39140;SDS011;24875;48.436;10.298;2024-01-30T04:00:41;10.07;;;4.83;;
39140;SDS011;24875;48.436;10.298;2024-01-30T04:03:08;11.37;;;5.27;;
39140;SDS011;24875;48.436;10.298;2024-01-30T04:05:36;15.40;;;5.60;;
39140;SDS011;24875;48.436;10.298;2024-01-30T04:08:03;12.60;;;5.40;;
39140;SDS011;24875;48.436;10.298;2024-01-30T04:10:30;11.53;;;5.27;;
39140;SDS011;24875;48.436;10.298;2024-01-30T04:12:56;8.40;;;4.67;;
39140;SDS011;24875;48.436;10.298;2024-01-30T04:15:23;9.27;;;5.03;;
39140;SDS011;24875;48.436;10.298;2024-01-30T04:17:49;10.17;;;4.77;;
39140;SDS011;24875;48.436;10.298;2024-01-30T04:20:16;13.77;;;5.73;;
39140;SDS011;24875;48.436;10.298;2024-01-30T04:22:44;10.63;;;4.23;;
39140;SDS011;24875;48.436;10.298;2024-01-30T04:25:11;12.70;;;5.00;;
39140;SDS011;24875;48.436;10.298;2024-01-30T04:27:39;9.27;;;4.90;;
39140;SDS011;24875;48.436;10.298;2024-01-30T04:30:06;9.03;;;4.43;;
39140;SDS011;24875;48.436;10.298;2024-01-30T04:32:33;8.77;;;4.13;;
39140;SDS011;24875;48.436;10.298;2024-01-30T04:35:01;8.53;;;4.17;;
39140;SDS011;24875;48.436;10.298;2024-01-30T04:37:27;10.30;;;5.60;;
39140;SDS011;24875;48.436;10.298;2024-01-30T04:39:55;11.87;;;5.53;;
39140;SDS011;24875;48.436;10.298;2024-01-30T04:42:22;13.17;;;5.67;;
39140;SDS011;24875;48.436;10.298;2024-01-30T04:44:49;9.97;;;4.63;;
39140;SDS011;24875;48.436;10.298;2024-01-30T04:47:15;13.23;;;4.50;;
39140;SDS011;24875;48.436;10.298;2024-01-30T04:49:42;15.37;;;5.43;;
39140;SDS011;24875;48.436;10.298;2024-01-30T04:52:09;9.97;;;4.87;;
39140;SDS011;24875;48.436;10.298;2024-01-30T04:54:35;8.47;;;4.60;;
39140;SDS011;24875;48.436;10.298;2024-01-30T04:57:04;9.97;;;5.13;;
39140;SDS011;24875;48.436;10.298;2024-01-30T04:59:34;10.87;;;4.63;;
39140;SDS011;24875;48.436;10.298;2024-01-30T05:02:01;12.03;;;5.30;;
39140;SDS011;24875;48.436;10.298;2024-01-30T05:04:27;10.97;;;4.80;;
39140;SDS011;24875;48.436;10.298;2024-01-30T05:06:54;13.43;;;5.43;;
39140;SDS011;24875;48.436;10.298;2024-01-30T05:09:20;14.43;;;5.63;;
39140;SDS011;24875;48.436;10.298;2024-01-30T05:11:47;15.53;;;6.30;;
39140;SDS011;24875;48.436;10.298;2024-01-30T05:14:15;12.17;;;6.17;;
39140;SDS011;24875;48.436;10.298;2024-01-30T05:16:41;12.20;;;5.37;;
39140;SDS011;24875;48.436;10.298;2024-01-30T05:19:11;13.17;;;5.97;;
39140;SDS011;24875;48.436;10.298;2024-01-30T05:21:38;13.87;;;6.07;;
39140;SDS011;24875;48.436;10.298;2024-01-30T05:24:05;14.20;;;6.03;;
39140;SDS011;24875;48.436;10.298;2024-01-30T05:26:32;14.97;;;5.73;;
39140;SDS011;24875;48.436;10.298;2024-01-30T05:28:58;11.27;;;4.97;;
39140;SDS011;24875;48.436;10.298;2024-01-30T05:31:26;10.67;;;5.57;;
39140;SDS011;24875;48.436;10.298;2024-01-30T05:33:53;10.83;;;5.53;;
39140;SDS011;24875;48.436;10.298;2024-01-30T05:36:20;10.93;;;5.30;;
39140;SDS011;24875;48.436;10.298;2024-01-30T05:38:47;9.97;;;4.83;;
39140;SDS011;24875;48.436;10.298;2024-01-30T05:41:13;12.97;;;5.57;;
39140;SDS011;24875;48.436;10.298;2024-01-30T05:43:40;14.45;;;5.93;;
39140;SDS011;24875;48.436;10.298;2024-01-30T05:46:06;13.33;;;5.63;;
39140;SDS011;24875;48.436;10.298;2024-01-30T05:48:35;10.33;;;4.23;;
39140;SDS011;24875;48.436;10.298;2024-01-30T05:51:01;9.83;;;4.87;;
39140;SDS011;24875;48.436;10.298;2024-01-30T05:53:29;8.40;;;4.20;;
39140;SDS011;24875;48.436;10.298;2024-01-30T05:55:55;13.23;;;4.57;;
39140;SDS011;24875;48.436;10.298;2024-01-30T05:58:22;7.80;;;4.07;;
39140;SDS011;24875;48.436;10.298;2024-01-30T06:00:49;9.13;;;3.87;;
39140;SDS011;24875;48.436;10.298;2024-01-30T06:03:15;23.73;;;5.13;;
39140;SDS011;24875;48.436;10.298;2024-01-30T06:05:43;8.17;;;3.90;;
39140;SDS011;24875;48.436;10.298;2024-01-30T06:08:09;8.20;;;4.47;;
39140;SDS011;24875;48.436;10.298;2024-01-30T06:10:35;12.13;;;5.00;;
39140;SDS011;24875;48.436;10.298;2024-01-30T06:13:02;7.47;;;4.63;;
39140;SDS011;24875;48.436;10.298;2024-01-30T06:15:28;12.17;;;4.07;;
39140;SDS011;24875;48.436;10.298;2024-01-30T06:17:55;8.10;;;4.17;;
39140;SDS011;24875;48.436;10.298;2024-01-30T06:20:22;7.80;;;4.30;;
39140;SDS011;24875;48.436;10.298;2024-01-30T06:22:50;10.50;;;4.07;;
39140;SDS011;24875;48.436;10.298;2024-01-30T06:25:16;10.97;;;5.07;;
39140;SDS011;24875;48.436;10.298;2024-01-30T06:27:43;10.10;;;4.80;;
39140;SDS011;24875;48.436;10.298;2024-01-30T06:30:10;9.20;;;4.83;;
39140;SDS011;24875;48.436;10.298;2024-01-30T06:32:37;9.60;;;4.30;;
39140;SDS011;24875;48.436;10.298;2024-01-30T06:35:04;8.00;;;4.10;;
39140;SDS011;24875;48.436;10.298;2024-01-30T06:37:31;11.93;;;5.50;;
39140;SDS011;24875;48.436;10.298;2024-01-30T06:40:02;9.07;;;4.77;;
39140;SDS011;24875;48.436;10.298;2024-01-30T06:42:30;13.23;;;4.80;;
39140;SDS011;24875;48.436;10.298;2024-01-30T06:44:57;11.60;;;4.30;;
39140;SDS011;24875;48.436;10.298;2024-01-30T06:47:23;13.73;;;5.47;;
39140;SDS011;24875;48.436;10.298;2024-01-30T06:49:50;8.37;;;4.27;;
39140;SDS011;24875;48.436;10.298;2024-01-30T06:52:16;9.50;;;4.90;;
39140;SDS011;24875;48.436;10.298;2024-01-30T06:54:43;12.13;;;4.77;;
39140;SDS011;24875;48.436;10.298;2024-01-30T06:57:11;9.20;;;4.37;;
39140;SDS011;24875;48.436;10.298;2024-01-30T06:59:39;12.03;;;5.00;;
39140;SDS011;24875;48.436;10.298;2024-01-30T07:02:08;10.90;;;4.37;;
39140;SDS011;24875;48.436;10.298;2024-01-30T07:04:35;10.27;;;4.93;;
39140;SDS011;24875;48.436;10.298;2024-01-30T07:07:04;8.73;;;3.43;;
39140;SDS011;24875;48.436;10.298;2024-01-30T07:09:31;7.97;;;4.27;;
39140;SDS011;24875;48.436;10.298;2024-01-30T07:11:59;7.63;;;4.33;;
39140;SDS011;24875;48.436;10.298;2024-01-30T07:14:27;10.47;;;4.13;;
39140;SDS011;24875;48.436;10.298;2024-01-30T07:16:53;8.13;;;4.17;;
39140;SDS011;24875;48.436;10.298;2024-01-30T07:19:20;7.73;;;3.20;;
39140;SDS011;24875;48.436;10.298;2024-01-30T07:21:46;7.00;;;4.20;;
39140;SDS011;24875;48.436;10.298;2024-01-30T07:24:13;10.93;;;5.10;;
39140;SDS011;24875;48.436;10.298;2024-01-30T07:26:39;7.07;;;3.93;;
39140;SDS011;24875;48.436;10.298;2024-01-30T07:29:06;10.37;;;4.53;;
39140;SDS011;24875;48.436;10.298;2024-01-30T07:31:34;11.23;;;4.87;;
39140;SDS011;24875;48.436;10.298;2024-01-30T07:34:00;8.83;;;4.83;;
39140;SDS011;24875;48.436;10.298;2024-01-30T07:36:27;7.63;;;4.23;;
39140;SDS011;24875;48.436;10.298;2024-01-30T07:38:54;9.63;;;4.67;;
39140;SDS011;24875;48.436;10.298;2024-01-30T07:41:20;8.87;;;4.83;;
39140;SDS011;24875;48.436;10.298;2024-01-30T07:43:48;8.77;;;4.40;;
39140;SDS011;24875;48.436;10.298;2024-01-30T07:46:14;10.07;;;4.63;;
39140;SDS011;24875;48.436;10.298;2024-01-30T07:48:42;9.00;;;4.13;;
39140;SDS011;24875;48.436;10.298;2024-01-30T07:51:08;11.73;;;4.57;;
39140;SDS011;24875;48.436;10.298;2024-01-30T07:53:35;7.60;;;3.80;;
39140;SDS011;24875;48.436;10.298;2024-01-30T07:56:02;6.97;;;4.20;;
39140;SDS011;24875;48.436;10.298;2024-01-30T07:58:28;10.23;;;4.23;;
39140;SDS011;24875;48.436;10.298;2024-01-30T08:00:55;7.80;;;3.90;;
39140;SDS011;24875;48.436;10.298;2024-01-30T08:03:23;10.87;;;4.90;;
39140;SDS011;24875;48.436;10.298;2024-01-30T08:05:51;10.03;;;4.10;;
39140;SDS011;24875;48.436;10.298;2024-01-30T08:08:17;7.73;;;3.47;;
39140;SDS011;24875;48.436;10.298;2024-01-30T08:10:44;12.60;;;4.93;;
39140;SDS011;24875;48.436;10.298;2024-01-30T08:13:10;10.80;;;4.37;;
39140;SDS011;24875;48.436;10.298;2024-01-30T08:15:37;12.80;;;4.33;;
39140;SDS011;24875;48.436;10.298;2024-01-30T08:18:04;11.03;;;4.23;;
39140;SDS011;24875;48.436;10.298;2024-01-30T08:20:32;10.60;;;4.80;;
39140;SDS011;24875;48.436;10.298;2024-01-30T08:23:00;12.50;;;5.57;;
39140;SDS011;24875;48.436;10.298;2024-01-30T08:25:26;10.40;;;5.00;;
39140;SDS011;24875;48.436;10.298;2024-01-30T08:27:53;31.67;;;6.33;;
39140;SDS011;24875;48.436;10.298;2024-01-30T08:30:19;15.97;;;5.93;;
39140;SDS011;24875;48.436;10.298;2024-01-30T08:32:46;13.97;;;6.17;;
39140;SDS011;24875;48.436;10.298;2024-01-30T08:35:13;17.57;;;7.50;;
39140;SDS011;24875;48.436;10.298;2024-01-30T08:37:41;15.50;;;6.00;;
39140;SDS011;24875;48.436;10.298;2024-01-30T08:40:09;15.47;;;6.13;;
39140;SDS011;24875;48.436;10.298;2024-01-30T08:42:36;10.90;;;5.27;;
39140;SDS011;24875;48.436;10.298;2024-01-30T08:45:03;17.80;;;5.93;;
39140;SDS011;24875;48.436;10.298;2024-01-30T08:47:30;12.53;;;5.10;;
39140;SDS011;24875;48.436;10.298;2024-01-30T08:49:58;11.63;;;4.77;;
39140;SDS011;24875;48.436;10.298;2024-01-30T08:52:23;6.93;;;3.87;;
39140;SDS011;24875;48.436;10.298;2024-01-30T08:54:50;7.10;;;3.50;;
39140;SDS011;24875;48.436;10.298;2024-01-30T08:57:18;9.80;;;4.77;;
39140;SDS011;24875;48.436;10.298;2024-01-30T08:59:44;9.03;;;4.27;;
39140;SDS011;24875;48.436;10.298;2024-01-30T09:02:12;7.90;;;3.50;;
39140;SDS011;24875;48.436;10.298;2024-01-30T09:04:41;6.60;;;3.50;;
39140;SDS011;24875;48.436;10.298;2024-01-30T09:07:08;9.13;;;3.20;;
39140;SDS011;24875;48.436;10.298;2024-01-30T09:09:35;7.37;;;3.27;;
39140;SDS011;24875;48.436;10.298;2024-01-30T09:12:01;6.40;;;2.80;;
39140;SDS011;24875;48.436;10.298;2024-01-30T09:14:33;7.63;;;2.90;;
39140;SDS011;24875;48.436;10.298;2024-01-30T09:17:00;6.27;;;2.80;;
39140;SDS011;24875;48.436;10.298;2024-01-30T09:19:28;9.93;;;3.63;;
39140;SDS011;24875;48.436;10.298;2024-01-30T09:21:54;7.93;;;4.00;;
39140;SDS011;24875;48.436;10.298;2024-01-30T09:24:21;14.13;;;3.87;;
39140;SDS011;24875;48.436;10.298;2024-01-30T09:26:47;7.63;;;3.50;;
39140;SDS011;24875;48.436;10.298;2024-01-30T09:29:14;7.60;;;3.70;;
39140;SDS011;24875;48.436;10.298;2024-01-30T09:31:44;8.37;;;3.37;;
39140;SDS011;24875;48.436;10.298;2024-01-30T09:34:11;7.93;;;3.87;;
39140;SDS011;24875;48.436;10.298;2024-01-30T09:36:37;9.93;;;4.27;;
39140;SDS011;24875;48.436;10.298;2024-01-30T09:39:04;6.73;;;3.43;;
39140;SDS011;24875;48.436;10.298;2024-01-30T09:41:32;6.30;;;4.20;;
39140;SDS011;24875;48.436;10.298;2024-01-30T09:44:00;8.23;;;3.83;;
39140;SDS011;24875;48.436;10.298;2024-01-30T09:46:28;7.00;;;2.90;;
39140;SDS011;24875;48.436;10.298;2024-01-30T09:48:59;5.43;;;3.20;;
39140;SDS011;24875;48.436;10.298;2024-01-30T09:51:28;8.20;;;3.07;;
39140;SDS011;24875;48.436;10.298;2024-01-30T09:53:56;7.17;;;3.40;;
39140;SDS011;24875;48.436;10.298;2024-01-30T09:56:23;5.93;;;3.17;;
39140;SDS011;24875;48.436;10.298;2024-01-30T09:58:49;10.97;;;4.27;;
39140;SDS011;24875;48.436;10.298;2024-01-30T10:01:17;10.90;;;4.43;;
39140;SDS011;24875;48.436;10.298;2024-01-30T10:03:44;9.37;;;4.67;;
39140;SDS011;24875;48.436;10.298;2024-01-30T10:06:12;13.40;;;5.40;;
39140;SDS011;24875;48.436;10.298;2024-01-30T10:08:41;11.00;;;5.23;;
39140;SDS011;24875;48.436;10.298;2024-01-30T10:11:08;7.10;;;3.50;;
39140;SDS011;24875;48.436;10.298;2024-01-30T10:13:35;20.60;;;6.30;;
39140;SDS011;24875;48.436;10.298;2024-01-30T10:16:02;11.17;;;5.13;;
39140;SDS011;24875;48.436;10.298;2024-01-30T10:18:31;9.27;;;4.13;;
39140;SDS011;24875;48.436;10.298;2024-01-30T10:20:58;8.97;;;4.27;;
39140;SDS011;24875;48.436;10.298;2024-01-30T10:23:26;10.30;;;5.43;;
39140;SDS011;24875;48.436;10.298;2024-01-30T10:25:53;10.40;;;4.80;;
39140;SDS011;24875;48.436;10.298;2024-01-30T10:28:20;5.57;;;3.50;;
39140;SDS011;24875;48.436;10.298;2024-01-30T10:30:46;9.07;;;4.73;;
39140;SDS011;24875;48.436;10.298;2024-01-30T10:33:23;13.87;;;4.70;;
39140;SDS011;24875;48.436;10.298;2024-01-30T10:35:49;10.37;;;3.80;;
39140;SDS011;24875;48.436;10.298;2024-01-30T10:38:17;6.23;;;3.30;;
39140;SDS011;24875;48.436;10.298;2024-01-30T10:40:47;12.07;;;4.70;;
39140;SDS011;24875;48.436;10.298;2024-01-30T10:43:17;7.70;;;3.77;;
39140;SDS011;24875;48.436;10.298;2024-01-30T10:45:48;7.57;;;4.03;;
39140;SDS011;24875;48.436;10.298;2024-01-30T10:48:18;5.87;;;3.23;;
39140;SDS011;24875;48.436;10.298;2024-01-30T10:50:55;7.20;;;3.13;;
39140;SDS011;24875;48.436;10.298;2024-01-30T10:53:25;9.73;;;4.00;;
39140;SDS011;24875;48.436;10.298;2024-01-30T10:55:54;9.67;;;4.20;;
39140;SDS011;24875;48.436;10.298;2024-01-30T10:58:22;10.20;;;4.97;;
39140;SDS011;24875;48.436;10.298;2024-01-30T11:00:49;12.63;;;5.03;;
39140;SDS011;24875;48.436;10.298;2024-01-30T11:03:17;11.07;;;5.63;;
39140;SDS011;24875;48.436;10.298;2024-01-30T11:05:48;14.00;;;5.63;;
39140;SDS011;24875;48.436;10.298;2024-01-30T11:08:22;11.73;;;4.87;;
39140;SDS011;24875;48.436;10.298;2024-01-30T11:10:49;9.23;;;5.30;;
39140;SDS011;24875;48.436;10.298;2024-01-30T11:13:21;13.70;;;5.17;;
39140;SDS011;24875;48.436;10.298;2024-01-30T11:15:48;9.77;;;4.53;;
39140;SDS011;24875;48.436;10.298;2024-01-30T11:18:22;21.03;;;4.80;;
39140;SDS011;24875;48.436;10.298;2024-01-30T11:20:49;8.87;;;4.30;;
39140;SDS011;24875;48.436;10.298;2024-01-30T11:23:16;11.20;;;4.87;;
39140;SDS011;24875;48.436;10.298;2024-01-30T11:25:43;9.17;;;4.57;;
39140;SDS011;24875;48.436;10.298;2024-01-30T11:28:12;8.60;;;4.13;;
39140;SDS011;24875;48.436;10.298;2024-01-30T11:30:41;7.43;;;4.77;;
39140;SDS011;24875;48.436;10.298;2024-01-30T11:33:08;12.87;;;4.93;;
39140;SDS011;24875;48.436;10.298;2024-01-30T11:35:37;14.23;;;5.40;;
39140;SDS011;24875;48.436;10.298;2024-01-30T11:38:05;11.70;;;4.57;;
39140;SDS011;24875;48.436;10.298;2024-01-30T11:40:33;10.57;;;4.37;;
39140;SDS011;24875;48.436;10.298;2024-01-30T11:43:01;6.70;;;3.40;;
39140;SDS011;24875;48.436;10.298;2024-01-30T11:45:29;10.43;;;5.03;;
39140;SDS011;24875;48.436;10.298;2024-01-30T11:47:57;12.10;;;5.20;;
39140;SDS011;24875;48.436;10.298;2024-01-30T11:50:26;11.87;;;4.63;;
39140;SDS011;24875;48.436;10.298;2024-01-30T11:52:53;12.07;;;4.37;;
39140;SDS011;24875;48.436;10.298;2024-01-30T11:55:20;13.13;;;6.00;;
39140;SDS011;24875;48.436;10.298;2024-01-30T11:57:47;6.90;;;3.50;;
39140;SDS011;24875;48.436;10.298;2024-01-30T12:00:14;10.83;;;4.40;;
39140;SDS011;24875;48.436;10.298;2024-01-30T12:02:41;12.67;;;4.63;;
39140;SDS011;24875;48.436;10.298;2024-01-30T12:05:10;12.57;;;5.10;;
39140;SDS011;24875;48.436;10.298;2024-01-30T12:07:36;12.67;;;4.63;;
39140;SDS011;24875;48.436;10.298;2024-01-30T12:10:03;8.23;;;3.83;;
39140;SDS011;24875;48.436;10.298;2024-01-30T12:12:32;10.10;;;4.60;;
39140;SDS011;24875;48.436;10.298;2024-01-30T12:14:59;12.17;;;5.03;;
39140;SDS011;24875;48.436;10.298;2024-01-30T12:17:27;11.63;;;4.63;;
39140;SDS011;24875;48.436;10.298;2024-01-30T12:20:02;6.87;;;3.60;;
39140;SDS011;24875;48.436;10.298;2024-01-30T12:22:33;7.53;;;3.73;;
39140;SDS011;24875;48.436;10.298;2024-01-30T12:25:01;7.93;;;3.50;;
39140;SDS011;24875;48.436;10.298;2024-01-30T12:27:29;9.00;;;3.80;;
39140;SDS011;24875;48.436;10.298;2024-01-30T12:29:55;15.03;;;5.03;;
39140;SDS011;24875;48.436;10.298;2024-01-30T12:32:23;9.30;;;4.10;;
39140;SDS011;24875;48.436;10.298;2024-01-30T12:34:49;8.13;;;3.83;;
39140;SDS011;24875;48.436;10.298;2024-01-30T12:37:16;8.70;;;3.93;;
39140;SDS011;24875;48.436;10.298;2024-01-30T12:39:48;7.70;;;4.10;;
39140;SDS011;24875;48.436;10.298;2024-01-30T12:42:14;8.63;;;3.70;;
39140;SDS011;24875;48.436;10.298;2024-01-30T12:44:41;6.77;;;3.53;;
39140;SDS011;24875;48.436;10.298;2024-01-30T12:47:08;7.93;;;4.27;;
39140;SDS011;24875;48.436;10.298;2024-01-30T12:49:35;5.93;;;3.57;;
39140;SDS011;24875;48.436;10.298;2024-01-30T12:52:02;6.33;;;3.43;;
39140;SDS011;24875;48.436;10.298;2024-01-30T12:54:29;12.17;;;4.90;;
39140;SDS011;24875;48.436;10.298;2024-01-30T12:56:56;9.27;;;4.13;;
39140;SDS011;24875;48.436;10.298;2024-01-30T12:59:23;9.13;;;3.80;;
39140;SDS011;24875;48.436;10.298;2024-01-30T13:01:49;9.13;;;3.93;;
39140;SDS011;24875;48.436;10.298;2024-01-30T13:04:16;9.00;;;3.90;;
39140;SDS011;24875;48.436;10.298;2024-01-30T13:06:43;7.50;;;4.47;;
39140;SDS011;24875;48.436;10.298;2024-01-30T13:09:09;8.63;;;3.93;;
39140;SDS011;24875;48.436;10.298;2024-01-30T13:11:36;8.83;;;4.43;;
39140;SDS011;24875;48.436;10.298;2024-01-30T13:14:04;7.70;;;4.00;;
39140;SDS011;24875;48.436;10.298;2024-01-30T13:16:30;13.47;;;5.50;;
39140;SDS011;24875;48.436;10.298;2024-01-30T13:18:57;8.57;;;4.23;;
39140;SDS011;24875;48.436;10.298;2024-01-30T13:21:23;6.50;;;3.57;;
39140;SDS011;24875;48.436;10.298;2024-01-30T13:23:50;9.63;;;3.63;;
39140;SDS011;24875;48.436;10.298;2024-01-30T13:26:18;7.33;;;3.63;;
39140;SDS011;24875;48.436;10.298;2024-01-30T13:28:44;7.40;;;3.47;;
39140;SDS011;24875;48.436;10.298;2024-01-30T13:31:13;10.60;;;4.20;;
39140;SDS011;24875;48.436;10.298;2024-01-30T13:33:40;8.80;;;4.50;;
39140;SDS011;24875;48.436;10.298;2024-01-30T13:36:07;10.40;;;4.20;;
39140;SDS011;24875;48.436;10.298;2024-01-30T13:38:35;8.67;;;3.83;;
39140;SDS011;24875;48.436;10.298;2024-01-30T13:41:02;9.10;;;3.60;;
39140;SDS011;24875;48.436;10.298;2024-01-30T13:43:28;8.80;;;4.20;;
39140;SDS011;24875;48.436;10.298;2024-01-30T13:45:55;15.90;;;4.57;;
39140;SDS011;24875;48.436;10.298;2024-01-30T13:48:23;7.33;;;4.00;;
39140;SDS011;24875;48.436;10.298;2024-01-30T13:50:49;8.10;;;4.17;;
39140;SDS011;24875;48.436;10.298;2024-01-30T13:53:16;10.37;;;4.17;;
39140;SDS011;24875;48.436;10.298;2024-01-30T13:55:43;8.33;;;4.43;;
39140;SDS011;24875;48.436;10.298;2024-01-30T13:58:10;7.50;;;4.60;;
39140;SDS011;24875;48.436;10.298;2024-01-30T14:00:36;7.77;;;3.73;;
39140;SDS011;24875;48.436;10.298;2024-01-30T14:03:03;7.07;;;3.63;;
39140;SDS011;24875;48.436;10.298;2024-01-30T14:05:32;5.93;;;3.47;;
39140;SDS011;24875;48.436;10.298;2024-01-30T14:07:58;7.03;;;3.50;;
39140;SDS011;24875;48.436;10.298;2024-01-30T14:10:26;14.27;;;5.63;;
39140;SDS011;24875;48.436;10.298;2024-01-30T14:12:52;11.67;;;4.87;;
39140;SDS011;24875;48.436;10.298;2024-01-30T14:15:19;12.37;;;5.33;;
39140;SDS011;24875;48.436;10.298;2024-01-30T14:17:47;18.93;;;7.43;;
39140;SDS011;24875;48.436;10.298;2024-01-30T14:20:14;15.50;;;5.73;;
39140;SDS011;24875;48.436;10.298;2024-01-30T14:22:43;7.50;;;3.73;;
39140;SDS011;24875;48.436;10.298;2024-01-30T14:25:10;9.07;;;4.63;;